Putbus, Germany

3:39 PM CEST on March 30, 2015 (GMT +0200)
Station Teddy01 | | Change Station
CLOSE
Current Station
Personal Weather Station
Location: Brandshagen, MECKLENBURG-VORPOMMERN
Elevation: 56 ft
Nearby Weather Stations

Elev 56 ft 54.24 °N, 13.17 °E | Updated 15 seconds ago

Mostly Cloudy
Mostly Cloudy
47.3 °F
Feels Like 42 °F
N
13.6
Wind Variable Wind from WNW
Gusts 19.9 mph

Today
High -- | Low -- °F
--% Chance of Precip.
Yesterday
High -- | Low -- °F
Precip. -- in
6:44 AM 7:37 PM
Waxing Gibbous, 79% visible
Pressure 29.30 in
Visibility 6.2 miles
Clouds Few 1900 ft
Mostly Cloudy 2300 ft
Mostly Cloudy 4400 ft
Windchill 42 °F
Dew Point 35 °F
Humidity 62%
Rainfall 0.21 in
Snow Depth Not available.
UV 3.0 out of 12
Pollen Not available.
Air Quality Not available.
Flu Activity Not available.
SPECI ETNL 301324Z 28025G39KT 9999 VCSH FEW019CB BKN023 BKN044 07/03 Q0992 WHT BLU TEMPO GRN

More Conditions Fewer Conditions

Pressure 29.30 in
Visibility 6.2 miles
Clouds Few 1900 ft
Mostly Cloudy 2300 ft
Mostly Cloudy 4400 ft
Windchill 42 °F
Dew Point 35 °F
Humidity 62%
Rainfall 0.21 in
Snow Depth Not available.
UV 3.0 out of 12
Pollen Not available.
Air Quality Not available.
Flu Activity Not available.
SPECI ETNL 301324Z 28025G39KT 9999 VCSH FEW019CB BKN023 BKN044 07/03 Q0992 WHT BLU TEMPO GRN

More Conditions Fewer Conditions

10-Day Weather Forecast

Almanac

Astronomy

Mar. 30, 2015 Rise Set
Actual Time
Civil Twilight
Nautical Twilight
Astronomical Twilight
Moon
Length of Visible Light
Length of Day
Tomorrow will be .
, % of the Moon is Illuminated

Today's Extremes

Country Highs Country Lows

Community

WunderPhotos

Upload Photos

1,809,493 photos uploaded!

WunderBlogs® & News

Nearby

Air Quality

  Air Quality AQ Index Pollutant
Not available.

Snow Depth

Station Depth Elevation

Earthquake Activity

City Distance Mag. Time & Date
Minimum magnitude displayed is 2.5.

Coastal Water Temperatures

Place Temperature

Stations

Nearby Weather Stations

Station Location Temp. Windchill Dew Point Humidity Wind Precip. Elev Updated Type